Flugplatz Butzbach-Pfingstweide (UL)

Hier findest Du alle Informationen zum Flugplatz Butzbach-Pfingstweide (UL).

Informationen für Piloten zum Flugplatz Butzbach-Pfingstweide

Hier findest Du alle relevanten Informationen, die Du als Pilot benötigst, um Butzbach-Pfingstweide anzufliegen.

Flugplatz: Butzbach-Pfingstweide ICAO-Code: UL Flugplatz
Frequenz Turm: 129,500 Mhz GAFOR Gebiet: -
Frequenz Ground: 129,500 Mhz Mogas: nein
Platzrunde: N 2000 ft Landegebühr: -
Platzhöhe: Sunrise: 03:36 Uhr UTC
Pisten: 10/28 - 505 m x 15 m, Sunset: 19:06 Uhr UTC

Mitglieder, die in Butzbach-Pfingstweide fliegen

Flugwetter am Flugplatz Butzbach-Pfingstweide

Die METAR Information stammen aus EDDF (44.84 km entfernt).

METAR Code:
2021/05/10 19:50
EDDF 101950Z 24005KT 9999 -RA FEW005 SCT012 14/13 Q1010 TEMPO BKN014

Flugschulen am Flugplatz Butzbach-Pfingstweide

Am Flugplatz Butzbach-Pfingstweide gibt es leider keine Flugschule.

Benachbarte Flugplätze und Flugschulen

Es gibt 21 weitere Flugplätze in einem Umkreis von 50 km um den Flugplatz Butzbach-Pfingstweide.

Jetzt anmelden

Passwort vergessen

Umfrage Archiv

Seid Ihr aufgrund von Corona im Jahr 2020 mehr oder weniger geflogen als im Jahr zuvor?

weniger
56 %
gleich viel
26.9 %
mehr
17.1 %
Stimmen: 216 | Diskussion
Anzeige: Roland Aircraft
Statistik Alle Mitglieder

Aktuell sind 53 Besucher online, davon 1 Mitglied und 52 Gäste.


Mitglieder online:
Don-Manfredo 

Anzeige: VFR Sprechfunk Simulator


Anzeige: Pocket FMS